sensor_id;sensor_type;location;lat;lon;timestamp;P1;durP1;ratioP1;P2;durP2;ratioP2
78296;SDS011;67555;47.660;19.622;2023-12-14T00:01:14;9.00;;;4.75;;
78296;SDS011;67555;47.660;19.622;2023-12-14T00:03:40;7.60;;;4.45;;
78296;SDS011;67555;47.660;19.622;2023-12-14T00:06:10;9.50;;;4.90;;
78296;SDS011;67555;47.660;19.622;2023-12-14T00:08:36;9.95;;;5.38;;
78296;SDS011;67555;47.660;19.622;2023-12-14T00:11:05;7.72;;;4.68;;
78296;SDS011;67555;47.660;19.622;2023-12-14T00:13:32;6.03;;;3.95;;
78296;SDS011;67555;47.660;19.622;2023-12-14T00:15:59;11.13;;;5.18;;
78296;SDS011;67555;47.660;19.622;2023-12-14T00:18:25;11.77;;;6.13;;
78296;SDS011;67555;47.660;19.622;2023-12-14T00:20:51;12.32;;;7.03;;
78296;SDS011;67555;47.660;19.622;2023-12-14T00:23:18;10.55;;;5.28;;
78296;SDS011;67555;47.660;19.622;2023-12-14T00:25:43;10.77;;;5.05;;
78296;SDS011;67555;47.660;19.622;2023-12-14T00:28:09;10.57;;;6.47;;
78296;SDS011;67555;47.660;19.622;2023-12-14T00:30:35;10.85;;;5.53;;
78296;SDS011;67555;47.660;19.622;2023-12-14T00:33:01;13.52;;;5.18;;
78296;SDS011;67555;47.660;19.622;2023-12-14T00:35:27;12.52;;;6.10;;
78296;SDS011;67555;47.660;19.622;2023-12-14T00:37:52;14.02;;;6.60;;
78296;SDS011;67555;47.660;19.622;2023-12-14T00:40:18;11.45;;;5.50;;
78296;SDS011;67555;47.660;19.622;2023-12-14T00:42:44;11.93;;;6.32;;
78296;SDS011;67555;47.660;19.622;2023-12-14T00:45:10;12.75;;;5.97;;
78296;SDS011;67555;47.660;19.622;2023-12-14T00:47:35;14.35;;;7.05;;
78296;SDS011;67555;47.660;19.622;2023-12-14T00:50:01;9.90;;;5.35;;
78296;SDS011;67555;47.660;19.622;2023-12-14T00:52:27;10.65;;;5.70;;
78296;SDS011;67555;47.660;19.622;2023-12-14T00:54:54;13.90;;;6.15;;
78296;SDS011;67555;47.660;19.622;2023-12-14T00:57:20;11.27;;;6.50;;
78296;SDS011;67555;47.660;19.622;2023-12-14T00:59:45;12.77;;;6.30;;
78296;SDS011;67555;47.660;19.622;2023-12-14T01:02:11;13.23;;;6.03;;
78296;SDS011;67555;47.660;19.622;2023-12-14T01:04:37;15.98;;;7.10;;
78296;SDS011;67555;47.660;19.622;2023-12-14T01:07:03;18.05;;;7.07;;
78296;SDS011;67555;47.660;19.622;2023-12-14T01:09:29;15.85;;;6.40;;
78296;SDS011;67555;47.660;19.622;2023-12-14T01:11:55;16.48;;;8.18;;
78296;SDS011;67555;47.660;19.622;2023-12-14T01:14:21;16.55;;;7.72;;
78296;SDS011;67555;47.660;19.622;2023-12-14T01:16:47;12.32;;;6.45;;
78296;SDS011;67555;47.660;19.622;2023-12-14T01:19:13;13.27;;;5.90;;
78296;SDS011;67555;47.660;19.622;2023-12-14T01:21:39;9.55;;;5.45;;
78296;SDS011;67555;47.660;19.622;2023-12-14T01:24:04;10.45;;;6.22;;
78296;SDS011;67555;47.660;19.622;2023-12-14T01:26:30;12.00;;;5.45;;
78296;SDS011;67555;47.660;19.622;2023-12-14T01:28:56;10.05;;;5.18;;
78296;SDS011;67555;47.660;19.622;2023-12-14T01:31:24;5.38;;;4.28;;
78296;SDS011;67555;47.660;19.622;2023-12-14T01:33:50;6.63;;;4.15;;
78296;SDS011;67555;47.660;19.622;2023-12-14T01:36:22;8.48;;;4.63;;
78296;SDS011;67555;47.660;19.622;2023-12-14T01:38:49;7.05;;;4.75;;
78296;SDS011;67555;47.660;19.622;2023-12-14T01:41:15;5.18;;;3.40;;
78296;SDS011;67555;47.660;19.622;2023-12-14T01:43:41;7.70;;;3.53;;
78296;SDS011;67555;47.660;19.622;2023-12-14T01:46:07;6.57;;;3.08;;
78296;SDS011;67555;47.660;19.622;2023-12-14T01:48:33;8.18;;;3.55;;
78296;SDS011;67555;47.660;19.622;2023-12-14T01:50:58;6.22;;;3.33;;
78296;SDS011;67555;47.660;19.622;2023-12-14T01:53:27;7.80;;;4.72;;
78296;SDS011;67555;47.660;19.622;2023-12-14T01:55:53;8.73;;;3.33;;
78296;SDS011;67555;47.660;19.622;2023-12-14T01:58:18;3.95;;;2.75;;
78296;SDS011;67555;47.660;19.622;2023-12-14T02:03:13;8.20;;;4.13;;
78296;SDS011;67555;47.660;19.622;2023-12-14T02:05:40;10.07;;;4.45;;
78296;SDS011;67555;47.660;19.622;2023-12-14T02:08:05;9.73;;;4.93;;
78296;SDS011;67555;47.660;19.622;2023-12-14T02:10:31;13.25;;;6.45;;
78296;SDS011;67555;47.660;19.622;2023-12-14T02:12:57;10.88;;;6.32;;
78296;SDS011;67555;47.660;19.622;2023-12-14T02:15:23;16.17;;;5.07;;
78296;SDS011;67555;47.660;19.622;2023-12-14T02:17:49;8.98;;;4.90;;
78296;SDS011;67555;47.660;19.622;2023-12-14T02:20:15;7.20;;;4.38;;
78296;SDS011;67555;47.660;19.622;2023-12-14T02:22:51;14.13;;;6.72;;
78296;SDS011;67555;47.660;19.622;2023-12-14T02:25:19;8.02;;;5.00;;
78296;SDS011;67555;47.660;19.622;2023-12-14T02:27:46;9.30;;;4.57;;
78296;SDS011;67555;47.660;19.622;2023-12-14T02:30:13;12.60;;;5.30;;
78296;SDS011;67555;47.660;19.622;2023-12-14T02:32:39;9.10;;;4.30;;
78296;SDS011;67555;47.660;19.622;2023-12-14T02:35:05;7.82;;;4.55;;
78296;SDS011;67555;47.660;19.622;2023-12-14T02:37:32;6.40;;;3.97;;
78296;SDS011;67555;47.660;19.622;2023-12-14T02:39:59;11.05;;;4.88;;
78296;SDS011;67555;47.660;19.622;2023-12-14T02:42:25;8.02;;;5.35;;
78296;SDS011;67555;47.660;19.622;2023-12-14T02:44:52;4.90;;;3.03;;
78296;SDS011;67555;47.660;19.622;2023-12-14T02:47:18;7.07;;;2.25;;
78296;SDS011;67555;47.660;19.622;2023-12-14T02:49:44;6.30;;;3.45;;
78296;SDS011;67555;47.660;19.622;2023-12-14T02:52:10;5.20;;;3.15;;
78296;SDS011;67555;47.660;19.622;2023-12-14T02:54:38;6.90;;;4.20;;
78296;SDS011;67555;47.660;19.622;2023-12-14T02:57:05;8.32;;;4.18;;
78296;SDS011;67555;47.660;19.622;2023-12-14T02:59:30;5.68;;;3.40;;
78296;SDS011;67555;47.660;19.622;2023-12-14T03:01:56;10.05;;;4.70;;
78296;SDS011;67555;47.660;19.622;2023-12-14T03:04:22;7.63;;;3.40;;
78296;SDS011;67555;47.660;19.622;2023-12-14T03:06:48;6.78;;;2.63;;
78296;SDS011;67555;47.660;19.622;2023-12-14T03:09:14;5.13;;;3.70;;
78296;SDS011;67555;47.660;19.622;2023-12-14T03:11:39;2.50;;;1.95;;
78296;SDS011;67555;47.660;19.622;2023-12-14T03:14:05;2.97;;;2.03;;
78296;SDS011;67555;47.660;19.622;2023-12-14T03:16:32;5.75;;;4.07;;
78296;SDS011;67555;47.660;19.622;2023-12-14T03:19:00;6.38;;;2.97;;
78296;SDS011;67555;47.660;19.622;2023-12-14T03:21:26;8.07;;;3.17;;
78296;SDS011;67555;47.660;19.622;2023-12-14T03:23:52;3.08;;;2.20;;
78296;SDS011;67555;47.660;19.622;2023-12-14T03:26:17;7.75;;;3.70;;
78296;SDS011;67555;47.660;19.622;2023-12-14T03:28:45;4.25;;;2.72;;
78296;SDS011;67555;47.660;19.622;2023-12-14T03:31:11;9.95;;;3.80;;
78296;SDS011;67555;47.660;19.622;2023-12-14T03:33:38;5.95;;;3.13;;
78296;SDS011;67555;47.660;19.622;2023-12-14T03:36:04;4.97;;;2.78;;
78296;SDS011;67555;47.660;19.622;2023-12-14T03:38:30;7.57;;;3.72;;
78296;SDS011;67555;47.660;19.622;2023-12-14T03:40:57;6.32;;;3.22;;
78296;SDS011;67555;47.660;19.622;2023-12-14T03:43:22;6.45;;;4.45;;
78296;SDS011;67555;47.660;19.622;2023-12-14T03:45:49;8.93;;;4.35;;
78296;SDS011;67555;47.660;19.622;2023-12-14T03:48:15;9.38;;;5.07;;
78296;SDS011;67555;47.660;19.622;2023-12-14T03:50:40;9.43;;;4.68;;
78296;SDS011;67555;47.660;19.622;2023-12-14T03:53:07;10.65;;;5.47;;
78296;SDS011;67555;47.660;19.622;2023-12-14T03:55:33;9.80;;;6.00;;
78296;SDS011;67555;47.660;19.622;2023-12-14T03:57:59;13.65;;;6.43;;
78296;SDS011;67555;47.660;19.622;2023-12-14T04:00:24;14.93;;;6.30;;
78296;SDS011;67555;47.660;19.622;2023-12-14T04:02:50;12.85;;;5.25;;
78296;SDS011;67555;47.660;19.622;2023-12-14T04:05:17;11.13;;;5.35;;
78296;SDS011;67555;47.660;19.622;2023-12-14T04:07:43;10.38;;;5.75;;
78296;SDS011;67555;47.660;19.622;2023-12-14T04:10:09;11.20;;;4.63;;
78296;SDS011;67555;47.660;19.622;2023-12-14T04:12:36;13.32;;;5.57;;
78296;SDS011;67555;47.660;19.622;2023-12-14T04:15:03;12.02;;;5.25;;
78296;SDS011;67555;47.660;19.622;2023-12-14T04:17:30;12.35;;;5.07;;
78296;SDS011;67555;47.660;19.622;2023-12-14T04:19:57;10.18;;;4.35;;
78296;SDS011;67555;47.660;19.622;2023-12-14T04:22:24;11.45;;;6.00;;
78296;SDS011;67555;47.660;19.622;2023-12-14T04:24:50;12.20;;;5.65;;
78296;SDS011;67555;47.660;19.622;2023-12-14T04:27:16;15.48;;;5.65;;
78296;SDS011;67555;47.660;19.622;2023-12-14T04:29:41;12.57;;;5.07;;
78296;SDS011;67555;47.660;19.622;2023-12-14T04:32:07;9.45;;;5.38;;
78296;SDS011;67555;47.660;19.622;2023-12-14T04:34:33;13.40;;;5.22;;
78296;SDS011;67555;47.660;19.622;2023-12-14T04:36:59;9.60;;;4.35;;
78296;SDS011;67555;47.660;19.622;2023-12-14T04:39:25;9.02;;;5.18;;
78296;SDS011;67555;47.660;19.622;2023-12-14T04:41:51;12.27;;;6.07;;
78296;SDS011;67555;47.660;19.622;2023-12-14T04:44:17;13.35;;;7.25;;
78296;SDS011;67555;47.660;19.622;2023-12-14T04:46:49;10.80;;;4.95;;
78296;SDS011;67555;47.660;19.622;2023-12-14T04:49:15;10.77;;;4.78;;
78296;SDS011;67555;47.660;19.622;2023-12-14T04:51:41;10.52;;;4.80;;
78296;SDS011;67555;47.660;19.622;2023-12-14T04:54:07;7.65;;;5.10;;
78296;SDS011;67555;47.660;19.622;2023-12-14T04:56:33;13.13;;;5.45;;
78296;SDS011;67555;47.660;19.622;2023-12-14T04:58:59;15.48;;;6.20;;
78296;SDS011;67555;47.660;19.622;2023-12-14T05:01:25;11.50;;;5.32;;
78296;SDS011;67555;47.660;19.622;2023-12-14T05:03:53;10.07;;;5.22;;
78296;SDS011;67555;47.660;19.622;2023-12-14T05:06:20;12.05;;;5.47;;
78296;SDS011;67555;47.660;19.622;2023-12-14T05:08:46;11.30;;;4.93;;
78296;SDS011;67555;47.660;19.622;2023-12-14T05:11:12;12.07;;;5.00;;
78296;SDS011;67555;47.660;19.622;2023-12-14T05:13:38;9.25;;;4.75;;
78296;SDS011;67555;47.660;19.622;2023-12-14T05:16:04;10.93;;;5.30;;
78296;SDS011;67555;47.660;19.622;2023-12-14T05:18:30;10.80;;;5.25;;
78296;SDS011;67555;47.660;19.622;2023-12-14T05:20:56;10.07;;;4.55;;
78296;SDS011;67555;47.660;19.622;2023-12-14T05:23:22;9.52;;;5.25;;
78296;SDS011;67555;47.660;19.622;2023-12-14T05:25:49;11.02;;;5.18;;
78296;SDS011;67555;47.660;19.622;2023-12-14T05:28:15;10.25;;;5.70;;
78296;SDS011;67555;47.660;19.622;2023-12-14T05:30:40;11.63;;;6.68;;
78296;SDS011;67555;47.660;19.622;2023-12-14T05:33:06;9.68;;;4.80;;
78296;SDS011;67555;47.660;19.622;2023-12-14T05:35:33;14.95;;;5.75;;
78296;SDS011;67555;47.660;19.622;2023-12-14T05:37:58;12.38;;;5.47;;
78296;SDS011;67555;47.660;19.622;2023-12-14T05:40:25;7.28;;;3.78;;
78296;SDS011;67555;47.660;19.622;2023-12-14T05:42:50;3.83;;;2.45;;
78296;SDS011;67555;47.660;19.622;2023-12-14T05:45:16;14.77;;;4.93;;
78296;SDS011;67555;47.660;19.622;2023-12-14T05:47:43;14.35;;;6.60;;
78296;SDS011;67555;47.660;19.622;2023-12-14T05:50:10;7.32;;;3.47;;
78296;SDS011;67555;47.660;19.622;2023-12-14T05:52:36;6.10;;;4.05;;
78296;SDS011;67555;47.660;19.622;2023-12-14T05:55:03;10.05;;;4.93;;
78296;SDS011;67555;47.660;19.622;2023-12-14T05:57:29;12.80;;;6.22;;
78296;SDS011;67555;47.660;19.622;2023-12-14T05:59:55;13.02;;;5.85;;
78296;SDS011;67555;47.660;19.622;2023-12-14T06:02:20;17.80;;;7.00;;
78296;SDS011;67555;47.660;19.622;2023-12-14T06:04:46;11.13;;;6.97;;
78296;SDS011;67555;47.660;19.622;2023-12-14T06:07:13;15.18;;;5.90;;
78296;SDS011;67555;47.660;19.622;2023-12-14T06:09:40;18.95;;;7.22;;
78296;SDS011;67555;47.660;19.622;2023-12-14T06:12:06;11.60;;;5.85;;
78296;SDS011;67555;47.660;19.622;2023-12-14T06:14:31;16.25;;;6.32;;
78296;SDS011;67555;47.660;19.622;2023-12-14T06:16:57;19.70;;;7.43;;
78296;SDS011;67555;47.660;19.622;2023-12-14T06:19:23;18.65;;;7.38;;
78296;SDS011;67555;47.660;19.622;2023-12-14T06:21:49;9.98;;;5.55;;
78296;SDS011;67555;47.660;19.622;2023-12-14T06:24:15;16.20;;;7.75;;
78296;SDS011;67555;47.660;19.622;2023-12-14T06:26:41;11.88;;;4.72;;
78296;SDS011;67555;47.660;19.622;2023-12-14T06:29:10;24.70;;;10.43;;
78296;SDS011;67555;47.660;19.622;2023-12-14T06:31:37;36.47;;;16.83;;
78296;SDS011;67555;47.660;19.622;2023-12-14T06:34:03;75.90;;;30.80;;
78296;SDS011;67555;47.660;19.622;2023-12-14T06:36:32;13.98;;;6.93;;
78296;SDS011;67555;47.660;19.622;2023-12-14T06:38:59;19.15;;;5.53;;
78296;SDS011;67555;47.660;19.622;2023-12-14T06:41:26;22.35;;;10.85;;
78296;SDS011;67555;47.660;19.622;2023-12-14T06:43:53;26.83;;;9.13;;
78296;SDS011;67555;47.660;19.622;2023-12-14T06:46:19;22.05;;;8.38;;
78296;SDS011;67555;47.660;19.622;2023-12-14T06:48:46;17.98;;;7.88;;
78296;SDS011;67555;47.660;19.622;2023-12-14T06:51:12;19.95;;;7.65;;
78296;SDS011;67555;47.660;19.622;2023-12-14T06:53:42;21.73;;;9.43;;
78296;SDS011;67555;47.660;19.622;2023-12-14T06:56:09;21.00;;;7.45;;
78296;SDS011;67555;47.660;19.622;2023-12-14T06:58:39;23.52;;;8.40;;
78296;SDS011;67555;47.660;19.622;2023-12-14T07:01:07;21.80;;;9.88;;
78296;SDS011;67555;47.660;19.622;2023-12-14T07:03:36;18.42;;;7.18;;
78296;SDS011;67555;47.660;19.622;2023-12-14T07:06:07;27.02;;;8.98;;
78296;SDS011;67555;47.660;19.622;2023-12-14T07:08:33;19.48;;;7.43;;
78296;SDS011;67555;47.660;19.622;2023-12-14T07:10:58;15.75;;;8.63;;
78296;SDS011;67555;47.660;19.622;2023-12-14T07:13:25;11.30;;;5.72;;
78296;SDS011;67555;47.660;19.622;2023-12-14T07:15:51;14.18;;;5.97;;
78296;SDS011;67555;47.660;19.622;2023-12-14T07:18:17;15.13;;;5.82;;
78296;SDS011;67555;47.660;19.622;2023-12-14T07:20:42;19.40;;;7.18;;
78296;SDS011;67555;47.660;19.622;2023-12-14T07:23:08;18.42;;;6.25;;
78296;SDS011;67555;47.660;19.622;2023-12-14T07:25:34;17.58;;;6.50;;
78296;SDS011;67555;47.660;19.622;2023-12-14T07:27:59;16.25;;;7.53;;
78296;SDS011;67555;47.660;19.622;2023-12-14T07:30:25;21.73;;;10.68;;
78296;SDS011;67555;47.660;19.622;2023-12-14T07:32:51;25.48;;;11.73;;
78296;SDS011;67555;47.660;19.622;2023-12-14T07:35:17;33.95;;;16.58;;
78296;SDS011;67555;47.660;19.622;2023-12-14T07:37:43;31.67;;;19.55;;
78296;SDS011;67555;47.660;19.622;2023-12-14T07:40:08;38.83;;;21.70;;
78296;SDS011;67555;47.660;19.622;2023-12-14T07:42:35;34.03;;;16.63;;
78296;SDS011;67555;47.660;19.622;2023-12-14T07:45:00;22.88;;;12.10;;
78296;SDS011;67555;47.660;19.622;2023-12-14T07:47:26;26.20;;;14.90;;
78296;SDS011;67555;47.660;19.622;2023-12-14T07:49:52;8.57;;;5.50;;
78296;SDS011;67555;47.660;19.622;2023-12-14T07:52:17;11.43;;;5.97;;
78296;SDS011;67555;47.660;19.622;2023-12-14T07:54:43;8.73;;;5.40;;
78296;SDS011;67555;47.660;19.622;2023-12-14T07:57:09;8.90;;;4.47;;
78296;SDS011;67555;47.660;19.622;2023-12-14T07:59:35;9.05;;;4.47;;
78296;SDS011;67555;47.660;19.622;2023-12-14T08:02:00;21.15;;;9.75;;
78296;SDS011;67555;47.660;19.622;2023-12-14T08:04:28;23.88;;;11.25;;
78296;SDS011;67555;47.660;19.622;2023-12-14T08:06:54;26.15;;;10.90;;
78296;SDS011;67555;47.660;19.622;2023-12-14T08:09:21;42.78;;;18.23;;
78296;SDS011;67555;47.660;19.622;2023-12-14T08:11:47;27.80;;;11.82;;
78296;SDS011;67555;47.660;19.622;2023-12-14T08:14:12;24.45;;;12.43;;
78296;SDS011;67555;47.660;19.622;2023-12-14T08:16:38;25.02;;;12.55;;
78296;SDS011;67555;47.660;19.622;2023-12-14T08:19:04;27.98;;;13.43;;
78296;SDS011;67555;47.660;19.622;2023-12-14T08:21:29;32.80;;;16.88;;
78296;SDS011;67555;47.660;19.622;2023-12-14T08:23:56;23.98;;;12.43;;
78296;SDS011;67555;47.660;19.622;2023-12-14T08:26:21;22.63;;;12.27;;
78296;SDS011;67555;47.660;19.622;2023-12-14T08:28:47;25.90;;;11.90;;
78296;SDS011;67555;47.660;19.622;2023-12-14T08:31:13;20.13;;;10.57;;
78296;SDS011;67555;47.660;19.622;2023-12-14T08:33:41;27.90;;;13.35;;
78296;SDS011;67555;47.660;19.622;2023-12-14T08:36:07;16.17;;;8.38;;
78296;SDS011;67555;47.660;19.622;2023-12-14T08:38:33;19.83;;;7.63;;
78296;SDS011;67555;47.660;19.622;2023-12-14T08:40:59;16.67;;;7.82;;
78296;SDS011;67555;47.660;19.622;2023-12-14T08:43:25;15.80;;;7.40;;
78296;SDS011;67555;47.660;19.622;2023-12-14T08:45:52;21.50;;;11.10;;
78296;SDS011;67555;47.660;19.622;2023-12-14T08:48:18;17.85;;;7.82;;
78296;SDS011;67555;47.660;19.622;2023-12-14T08:50:44;15.07;;;5.75;;
78296;SDS011;67555;47.660;19.622;2023-12-14T08:53:10;10.93;;;5.05;;
78296;SDS011;67555;47.660;19.622;2023-12-14T08:55:36;10.63;;;5.45;;
78296;SDS011;67555;47.660;19.622;2023-12-14T08:58:02;9.60;;;5.13;;
78296;SDS011;67555;47.660;19.622;2023-12-14T09:00:28;8.27;;;4.35;;
78296;SDS011;67555;47.660;19.622;2023-12-14T09:02:53;9.18;;;4.78;;
78296;SDS011;67555;47.660;19.622;2023-12-14T09:05:20;7.10;;;4.80;;
78296;SDS011;67555;47.660;19.622;2023-12-14T09:07:47;8.80;;;5.65;;
78296;SDS011;67555;47.660;19.622;2023-12-14T09:10:12;7.78;;;4.13;;
78296;SDS011;67555;47.660;19.622;2023-12-14T09:12:38;11.02;;;4.00;;
78296;SDS011;67555;47.660;19.622;2023-12-14T09:15:04;10.77;;;5.28;;
78296;SDS011;67555;47.660;19.622;2023-12-14T09:17:30;5.03;;;3.30;;
78296;SDS011;67555;47.660;19.622;2023-12-14T09:22:25;7.15;;;4.97;;
78296;SDS011;67555;47.660;19.622;2023-12-14T09:24:51;7.70;;;4.32;;
78296;SDS011;67555;47.660;19.622;2023-12-14T09:27:18;8.23;;;4.68;;
78296;SDS011;67555;47.660;19.622;2023-12-14T09:29:44;7.70;;;4.50;;
78296;SDS011;67555;47.660;19.622;2023-12-14T09:32:10;11.93;;;4.57;;
78296;SDS011;67555;47.660;19.622;2023-12-14T09:34:35;9.00;;;4.57;;
78296;SDS011;67555;47.660;19.622;2023-12-14T09:37:01;10.70;;;5.15;;
78296;SDS011;67555;47.660;19.622;2023-12-14T09:39:27;6.78;;;3.55;;
78296;SDS011;67555;47.660;19.622;2023-12-14T09:42:00;10.20;;;5.50;;
78296;SDS011;67555;47.660;19.622;2023-12-14T09:44:30;6.82;;;3.47;;
78296;SDS011;67555;47.660;19.622;2023-12-14T09:46:57;9.80;;;5.00;;
78296;SDS011;67555;47.660;19.622;2023-12-14T09:49:27;7.97;;;4.97;;
78296;SDS011;67555;47.660;19.622;2023-12-14T09:51:57;8.80;;;5.15;;
78296;SDS011;67555;47.660;19.622;2023-12-14T09:54:24;9.60;;;6.38;;
78296;SDS011;67555;47.660;19.622;2023-12-14T09:56:51;13.55;;;5.53;;
78296;SDS011;67555;47.660;19.622;2023-12-14T09:59:20;11.07;;;5.97;;
78296;SDS011;67555;47.660;19.622;2023-12-14T10:01:46;11.45;;;5.70;;
78296;SDS011;67555;47.660;19.622;2023-12-14T10:04:15;11.63;;;6.53;;
78296;SDS011;67555;47.660;19.622;2023-12-14T10:06:44;5.72;;;3.97;;
78296;SDS011;67555;47.660;19.622;2023-12-14T10:09:11;9.85;;;5.07;;
78296;SDS011;67555;47.660;19.622;2023-12-14T10:11:40;14.02;;;5.72;;
78296;SDS011;67555;47.660;19.622;2023-12-14T10:14:25;10.70;;;4.97;;
78296;SDS011;67555;47.660;19.622;2023-12-14T10:16:52;12.07;;;4.43;;
78296;SDS011;67555;47.660;19.622;2023-12-14T10:19:18;12.25;;;6.13;;
78296;SDS011;67555;47.660;19.622;2023-12-14T10:21:49;11.15;;;6.50;;
78296;SDS011;67555;47.660;19.622;2023-12-14T10:24:15;10.05;;;6.32;;
78296;SDS011;67555;47.660;19.622;2023-12-14T10:26:45;11.98;;;5.63;;
78296;SDS011;67555;47.660;19.622;2023-12-14T10:29:11;11.27;;;5.70;;
78296;SDS011;67555;47.660;19.622;2023-12-14T10:31:37;14.15;;;5.75;;
78296;SDS011;67555;47.660;19.622;2023-12-14T10:34:06;16.02;;;5.72;;
78296;SDS011;67555;47.660;19.622;2023-12-14T10:36:32;13.13;;;6.60;;
78296;SDS011;67555;47.660;19.622;2023-12-14T10:39:00;11.13;;;5.05;;
78296;SDS011;67555;47.660;19.622;2023-12-14T10:41:26;12.52;;;6.95;;
78296;SDS011;67555;47.660;19.622;2023-12-14T10:43:55;18.17;;;8.43;;
78296;SDS011;67555;47.660;19.622;2023-12-14T10:46:21;18.48;;;9.60;;
78296;SDS011;67555;47.660;19.622;2023-12-14T10:48:49;15.63;;;8.68;;
78296;SDS011;67555;47.660;19.622;2023-12-14T10:51:17;18.52;;;8.23;;
78296;SDS011;67555;47.660;19.622;2023-12-14T10:53:45;13.77;;;6.40;;
78296;SDS011;67555;47.660;19.622;2023-12-14T10:56:13;12.73;;;6.95;;
78296;SDS011;67555;47.660;19.622;2023-12-14T10:58:46;15.95;;;7.28;;
78296;SDS011;67555;47.660;19.622;2023-12-14T11:01:23;14.38;;;7.68;;
78296;SDS011;67555;47.660;19.622;2023-12-14T11:03:50;17.38;;;7.95;;
78296;SDS011;67555;47.660;19.622;2023-12-14T11:08:52;18.90;;;10.20;;
78296;SDS011;67555;47.660;19.622;2023-12-14T11:11:20;14.98;;;7.28;;
78296;SDS011;67555;47.660;19.622;2023-12-14T11:13:50;11.73;;;7.20;;
78296;SDS011;67555;47.660;19.622;2023-12-14T11:16:19;13.60;;;7.28;;
78296;SDS011;67555;47.660;19.622;2023-12-14T11:18:46;15.50;;;7.68;;
78296;SDS011;67555;47.660;19.622;2023-12-14T11:21:17;9.82;;;5.65;;
78296;SDS011;67555;47.660;19.622;2023-12-14T11:23:45;14.13;;;6.80;;
78296;SDS011;67555;47.660;19.622;2023-12-14T11:26:11;11.82;;;6.60;;
78296;SDS011;67555;47.660;19.622;2023-12-14T11:28:45;12.20;;;6.20;;
78296;SDS011;67555;47.660;19.622;2023-12-14T11:31:12;13.45;;;7.32;;
78296;SDS011;67555;47.660;19.622;2023-12-14T11:33:37;16.60;;;7.80;;
78296;SDS011;67555;47.660;19.622;2023-12-14T11:36:03;13.23;;;6.63;;
78296;SDS011;67555;47.660;19.622;2023-12-14T11:38:30;15.75;;;8.20;;
78296;SDS011;67555;47.660;19.622;2023-12-14T11:40:57;15.73;;;8.52;;
78296;SDS011;67555;47.660;19.622;2023-12-14T11:43:23;15.48;;;7.60;;
78296;SDS011;67555;47.660;19.622;2023-12-14T11:45:51;13.18;;;7.00;;
78296;SDS011;67555;47.660;19.622;2023-12-14T11:48:17;15.15;;;7.53;;
78296;SDS011;67555;47.660;19.622;2023-12-14T11:50:45;10.68;;;6.45;;
78296;SDS011;67555;47.660;19.622;2023-12-14T11:53:12;17.73;;;8.00;;
78296;SDS011;67555;47.660;19.622;2023-12-14T11:55:40;16.63;;;7.97;;
78296;SDS011;67555;47.660;19.622;2023-12-14T11:58:06;17.17;;;8.45;;
78296;SDS011;67555;47.660;19.622;2023-12-14T12:00:33;14.18;;;6.43;;
78296;SDS011;67555;47.660;19.622;2023-12-14T12:05:35;11.63;;;5.80;;
78296;SDS011;67555;47.660;19.622;2023-12-14T12:08:01;15.43;;;6.63;;
78296;SDS011;67555;47.660;19.622;2023-12-14T12:10:28;12.55;;;7.10;;
78296;SDS011;67555;47.660;19.622;2023-12-14T12:13:03;11.18;;;6.47;;
78296;SDS011;67555;47.660;19.622;2023-12-14T12:15:32;15.93;;;6.28;;
78296;SDS011;67555;47.660;19.622;2023-12-14T12:18:01;14.23;;;7.82;;
78296;SDS011;67555;47.660;19.622;2023-12-14T12:20:34;12.82;;;6.57;;
78296;SDS011;67555;47.660;19.622;2023-12-14T12:23:00;11.63;;;7.07;;
78296;SDS011;67555;47.660;19.622;2023-12-14T12:25:28;10.13;;;5.88;;
78296;SDS011;67555;47.660;19.622;2023-12-14T12:27:54;13.45;;;7.40;;
78296;SDS011;67555;47.660;19.622;2023-12-14T12:30:22;15.20;;;7.90;;
78296;SDS011;67555;47.660;19.622;2023-12-14T12:32:48;10.05;;;6.05;;
78296;SDS011;67555;47.660;19.622;2023-12-14T12:35:17;12.52;;;6.90;;
78296;SDS011;67555;47.660;19.622;2023-12-14T12:37:47;12.52;;;6.20;;
78296;SDS011;67555;47.660;19.622;2023-12-14T12:40:18;18.08;;;7.53;;
78296;SDS011;67555;47.660;19.622;2023-12-14T12:42:47;11.18;;;6.25;;
78296;SDS011;67555;47.660;19.622;2023-12-14T12:45:14;10.65;;;7.35;;
78296;SDS011;67555;47.660;19.622;2023-12-14T12:47:42;13.30;;;7.03;;
78296;SDS011;67555;47.660;19.622;2023-12-14T12:50:09;12.35;;;6.88;;
78296;SDS011;67555;47.660;19.622;2023-12-14T12:52:34;10.95;;;6.18;;
78296;SDS011;67555;47.660;19.622;2023-12-14T12:55:01;12.90;;;6.78;;
78296;SDS011;67555;47.660;19.622;2023-12-14T12:57:29;12.63;;;6.60;;
78296;SDS011;67555;47.660;19.622;2023-12-14T12:59:55;11.35;;;7.63;;
78296;SDS011;67555;47.660;19.622;2023-12-14T13:02:26;10.13;;;5.28;;
78296;SDS011;67555;47.660;19.622;2023-12-14T13:04:52;12.25;;;6.70;;
78296;SDS011;67555;47.660;19.622;2023-12-14T13:07:18;12.18;;;6.78;;
78296;SDS011;67555;47.660;19.622;2023-12-14T13:09:44;13.20;;;7.60;;
78296;SDS011;67555;47.660;19.622;2023-12-14T13:12:10;20.67;;;9.38;;
78296;SDS011;67555;47.660;19.622;2023-12-14T13:14:36;27.45;;;11.40;;
78296;SDS011;67555;47.660;19.622;2023-12-14T13:17:02;12.18;;;6.60;;
78296;SDS011;67555;47.660;19.622;2023-12-14T13:19:27;15.52;;;9.82;;
78296;SDS011;67555;47.660;19.622;2023-12-14T13:21:54;28.85;;;12.68;;
78296;SDS011;67555;47.660;19.622;2023-12-14T13:24:22;24.92;;;10.80;;
78296;SDS011;67555;47.660;19.622;2023-12-14T13:26:49;17.77;;;10.48;;
78296;SDS011;67555;47.660;19.622;2023-12-14T13:29:14;17.50;;;9.10;;
78296;SDS011;67555;47.660;19.622;2023-12-14T13:31:40;15.07;;;8.43;;
78296;SDS011;67555;47.660;19.622;2023-12-14T13:34:06;18.75;;;8.98;;
78296;SDS011;67555;47.660;19.622;2023-12-14T13:36:31;15.68;;;8.48;;
78296;SDS011;67555;47.660;19.622;2023-12-14T13:38:57;10.52;;;6.20;;
78296;SDS011;67555;47.660;19.622;2023-12-14T13:41:23;13.10;;;6.60;;
78296;SDS011;67555;47.660;19.622;2023-12-14T13:43:49;18.75;;;8.07;;
78296;SDS011;67555;47.660;19.622;2023-12-14T13:46:16;11.77;;;6.90;;
78296;SDS011;67555;47.660;19.622;2023-12-14T13:48:42;12.65;;;7.10;;
78296;SDS011;67555;47.660;19.622;2023-12-14T13:51:09;11.75;;;6.30;;
78296;SDS011;67555;47.660;19.622;2023-12-14T13:53:35;11.32;;;5.78;;
78296;SDS011;67555;47.660;19.622;2023-12-14T13:56:01;11.57;;;6.35;;
78296;SDS011;67555;47.660;19.622;2023-12-14T13:58:26;12.57;;;6.95;;
78296;SDS011;67555;47.660;19.622;2023-12-14T14:00:52;14.75;;;7.40;;
78296;SDS011;67555;47.660;19.622;2023-12-14T14:03:19;12.43;;;6.72;;
78296;SDS011;67555;47.660;19.622;2023-12-14T14:05:45;12.45;;;6.53;;
78296;SDS011;67555;47.660;19.622;2023-12-14T14:08:10;14.77;;;6.60;;
78296;SDS011;67555;47.660;19.622;2023-12-14T14:10:36;23.08;;;10.05;;
78296;SDS011;67555;47.660;19.622;2023-12-14T14:13:03;15.18;;;7.82;;
78296;SDS011;67555;47.660;19.622;2023-12-14T14:15:29;16.35;;;7.60;;
78296;SDS011;67555;47.660;19.622;2023-12-14T14:17:55;18.10;;;9.60;;
78296;SDS011;67555;47.660;19.622;2023-12-14T14:20:21;22.80;;;10.07;;
78296;SDS011;67555;47.660;19.622;2023-12-14T14:22:47;17.95;;;8.88;;
78296;SDS011;67555;47.660;19.622;2023-12-14T14:25:13;17.85;;;9.13;;
78296;SDS011;67555;47.660;19.622;2023-12-14T14:27:39;16.55;;;8.23;;
78296;SDS011;67555;47.660;19.622;2023-12-14T14:30:06;20.60;;;8.20;;